sensor_id;sensor_type;location;lat;lon;timestamp;temperature;humidity
20139;DHT22;10230;51.502;10.800;2023-07-22T10:34:21;27.70;72.30
20139;DHT22;10230;51.502;10.800;2023-07-22T10:51:51;26.80;63.90
20139;DHT22;10230;51.502;10.800;2023-07-22T11:26:53;28.00;90.70
20139;DHT22;10230;51.502;10.800;2023-07-22T11:29:20;28.20;66.80
20139;DHT22;10230;51.502;10.800;2023-07-22T11:31:47;29.00;79.30
20139;DHT22;10230;51.502;10.800;2023-07-22T11:34:23;29.10;77.30
20139;DHT22;10230;51.502;10.800;2023-07-22T11:36:51;28.80;76.80
20139;DHT22;10230;51.502;10.800;2023-07-22T11:39:21;28.60;76.90
20139;DHT22;10230;51.502;10.800;2023-07-22T11:41:48;28.30;76.50
20139;DHT22;10230;51.502;10.800;2023-07-22T11:44:20;27.80;73.70
20139;DHT22;10230;51.502;10.800;2023-07-22T11:46:53;27.40;92.00
20139;DHT22;10230;51.502;10.800;2023-07-22T11:49:39;27.10;89.70
20139;DHT22;10230;51.502;10.800;2023-07-22T11:52:07;26.90;78.20
20139;DHT22;10230;51.502;10.800;2023-07-22T11:54:34;26.90;74.50
20139;DHT22;10230;51.502;10.800;2023-07-22T11:57:20;26.80;68.30
20139;DHT22;10230;51.502;10.800;2023-07-22T11:59:47;26.70;68.90
20139;DHT22;10230;51.502;10.800;2023-07-22T12:02:15;26.80;67.80
20139;DHT22;10230;51.502;10.800;2023-07-22T12:04:42;27.00;67.20
20139;DHT22;10230;51.502;10.800;2023-07-22T12:07:36;27.30;66.60
20139;DHT22;10230;51.502;10.800;2023-07-22T12:12:43;28.00;79.00
20139;DHT22;10230;51.502;10.800;2023-07-22T12:17:48;29.10;62.20
20139;DHT22;10230;51.502;10.800;2023-07-22T12:20:14;29.30;61.60
20139;DHT22;10230;51.502;10.800;2023-07-22T12:22:41;29.40;62.60
20139;DHT22;10230;51.502;10.800;2023-07-22T12:25:07;29.60;67.50
20139;DHT22;10230;51.502;10.800;2023-07-22T12:27:33;29.80;63.20
20139;DHT22;10230;51.502;10.800;2023-07-22T12:29:58;28.80;86.20
20139;DHT22;10230;51.502;10.800;2023-07-22T12:32:24;28.10;93.20
20139;DHT22;10230;51.502;10.800;2023-07-22T12:39:46;27.80;95.70
20139;DHT22;10230;51.502;10.800;2023-07-22T12:42:11;28.00;96.00
20139;DHT22;10230;51.502;10.800;2023-07-22T12:44:37;27.90;96.30
20139;DHT22;10230;51.502;10.800;2023-07-22T12:47:02;27.60;60.90
20139;DHT22;10230;51.502;10.800;2023-07-22T12:49:28;27.10;61.20
20139;DHT22;10230;51.502;10.800;2023-07-22T12:54:20;27.20;65.20
20139;DHT22;10230;51.502;10.800;2023-07-22T12:56:45;26.40;61.10
20139;DHT22;10230;51.502;10.800;2023-07-22T12:59:11;26.20;62.60
20139;DHT22;10230;51.502;10.800;2023-07-22T13:01:36;26.30;62.70
20139;DHT22;10230;51.502;10.800;2023-07-22T13:04:04;26.40;61.80
20139;DHT22;10230;51.502;10.800;2023-07-22T13:06:30;26.90;61.90
20139;DHT22;10230;51.502;10.800;2023-07-22T13:08:56;27.50;59.80
20139;DHT22;10230;51.502;10.800;2023-07-22T13:11:22;27.70;59.80
20139;DHT22;10230;51.502;10.800;2023-07-22T13:13:47;27.60;59.50
20139;DHT22;10230;51.502;10.800;2023-07-22T13:16:13;27.80;59.00
20139;DHT22;10230;51.502;10.800;2023-07-22T13:18:38;27.90;59.00
20139;DHT22;10230;51.502;10.800;2023-07-22T13:21:04;27.80;58.60
20139;DHT22;10230;51.502;10.800;2023-07-22T13:23:30;27.70;58.00
20139;DHT22;10230;51.502;10.800;2023-07-22T13:25:56;27.60;58.10
20139;DHT22;10230;51.502;10.800;2023-07-22T13:28:21;27.20;57.40
20139;DHT22;10230;51.502;10.800;2023-07-22T13:30:47;26.90;58.40
